weather.gov     
National Weather Service

Terminal Aerodrome Forecast
NWS Homepage
This page is being discontinued on March 12, 2014.
The same data is available at this site. Please update your bookmarks.
Thank you, and we apologize for the inconvenience.
Please send an email to SR-SRH.Webmaster@noaa.gov with any concerns.


Current Version
Previous Version:    01  02  03  04  05  06  07  08  09  10  11  12  13  14  15  16  17  18  19  20  21  22  23  24  25  
[Printable]
011
FTUS45 KRIW 152300
TAFCOD
TAF
KCOD 152331Z 1600/1624 30012G18KT P6SM VCSH BKN060
     FM160100 35010KT P6SM VCSH SCT040 BKN070
     FM160300 30007KT P6SM SCT060 BKN100
     FM160600 25011KT P6SM SCT120
     FM161800 VRB05KT P6SM VCSH SCT060 BKN100
      AMD LTD TO CLD VIS AND WIND=


U.S. Dept. of Commerce
NOAA National Weather Service
1325 East West Highway
Silver Spring, MD 20910
E-mail: w-nws.webmaster@noaa.gov
Page last modified: May 16, 2007
NATIONAL WEATHER SERVICE: for Safety, for Work, for Fun - FOR LIFE